createdAt,value
2023-04-17T00:02:02.186Z,3.38
2023-04-17T00:04:31.204Z,3.33
2023-04-17T00:06:59.635Z,2.88
2023-04-17T00:09:26.896Z,2.85
2023-04-17T00:11:53.974Z,2.92
2023-04-17T00:14:21.082Z,2.88
2023-04-17T00:16:48.502Z,2.80
2023-04-17T00:19:15.967Z,2.83
2023-04-17T00:21:43.076Z,2.95
2023-04-17T00:24:10.228Z,2.95
2023-04-17T00:26:37.378Z,3.17
2023-04-17T00:29:04.515Z,3.13
2023-04-17T00:31:31.914Z,3.53
2023-04-17T00:34:01.567Z,3.35
2023-04-17T00:36:32.071Z,3.30
2023-04-17T00:38:59.634Z,2.92
2023-04-17T00:41:26.736Z,3.33
2023-04-17T00:43:53.865Z,2.65
2023-04-17T00:46:21.395Z,3.22
2023-04-17T00:48:49.612Z,3.30
2023-04-17T00:51:16.967Z,2.85
2023-04-17T00:53:44.469Z,2.92
2023-04-17T00:56:12.154Z,2.95
2023-04-17T00:58:40.673Z,2.63
2023-04-17T01:01:08.073Z,2.97
2023-04-17T01:03:35.603Z,3.00
2023-04-17T01:06:04.160Z,2.70
2023-04-17T01:08:44.013Z,2.72
2023-04-17T01:11:11.645Z,3.03
2023-04-17T01:13:46.579Z,2.35
2023-04-17T01:16:14.215Z,2.60
2023-04-17T01:18:41.547Z,2.63
2023-04-17T01:21:08.706Z,2.90
2023-04-17T01:23:53.436Z,2.67
2023-04-17T01:26:22.537Z,2.67
2023-04-17T01:28:53.100Z,2.60
2023-04-17T01:31:21.393Z,2.83
2023-04-17T01:33:49.687Z,2.97
2023-04-17T01:36:17.471Z,2.85
2023-04-17T01:38:44.820Z,2.78
2023-04-17T01:41:12.277Z,2.75
2023-04-17T01:43:41.425Z,2.85
2023-04-17T01:46:09.022Z,3.00
2023-04-17T01:48:37.068Z,3.30
2023-04-17T01:51:04.648Z,3.45
2023-04-17T01:53:32.948Z,3.08
2023-04-17T01:56:03.283Z,2.95
2023-04-17T01:58:31.257Z,3.30
2023-04-17T02:00:58.396Z,3.10
2023-04-17T02:03:25.752Z,2.78
2023-04-17T02:05:54.049Z,3.22
2023-04-17T02:08:21.394Z,3.33
2023-04-17T02:10:48.551Z,3.95
2023-04-17T02:13:15.742Z,3.17
2023-04-17T02:15:43.266Z,3.15
2023-04-17T02:18:10.929Z,3.60
2023-04-17T02:20:39.086Z,3.55
2023-04-17T02:23:07.129Z,3.95
2023-04-17T02:25:35.685Z,3.45
2023-04-17T02:28:02.871Z,3.55
2023-04-17T02:30:30.247Z,3.22
2023-04-17T02:32:58.214Z,3.53
2023-04-17T02:35:27.609Z,3.75
2023-04-17T02:37:55.331Z,3.97
2023-04-17T02:40:22.413Z,3.80
2023-04-17T02:42:49.524Z,3.67
2023-04-17T02:45:16.709Z,4.40
2023-04-17T02:47:43.909Z,3.92
2023-04-17T02:50:11.892Z,3.83
2023-04-17T02:52:40.059Z,3.75
2023-04-17T02:55:07.433Z,3.42
2023-04-17T02:57:34.557Z,3.65
2023-04-17T03:00:01.800Z,3.63
2023-04-17T03:02:30.941Z,3.58
2023-04-17T03:04:58.180Z,3.65
2023-04-17T03:07:27.692Z,4.00
2023-04-17T03:09:57.723Z,3.85
2023-04-17T03:12:25.165Z,3.70
2023-04-17T03:14:52.693Z,4.30
2023-04-17T03:17:21.340Z,4.20
2023-04-17T03:19:48.519Z,4.30
2023-04-17T03:22:15.700Z,4.70
2023-04-17T03:24:42.879Z,4.25
2023-04-17T03:27:10.225Z,3.88
2023-04-17T03:29:37.622Z,3.60
2023-04-17T03:32:05.011Z,3.97
2023-04-17T03:34:32.138Z,4.38
2023-04-17T03:36:59.434Z,3.88
2023-04-17T03:39:27.220Z,3.80
2023-04-17T03:41:54.313Z,4.18
2023-04-17T03:44:21.668Z,4.75
2023-04-17T03:46:48.787Z,4.90
2023-04-17T03:49:16.092Z,4.03
2023-04-17T03:51:43.204Z,4.05
2023-04-17T03:54:10.634Z,4.45
2023-04-17T03:56:37.769Z,3.83
2023-04-17T03:59:05.576Z,4.10
2023-04-17T04:01:32.968Z,3.95
2023-04-17T04:04:00.684Z,4.07
2023-04-17T04:06:30.108Z,4.20
2023-04-17T04:08:57.534Z,5.05
2023-04-17T04:11:24.717Z,15.95
2023-04-17T04:13:51.959Z,10.55
2023-04-17T04:16:19.246Z,7.63
2023-04-17T04:18:46.465Z,7.95
2023-04-17T04:21:13.637Z,7.60
2023-04-17T04:23:41.800Z,8.30
2023-04-17T04:26:09.087Z,8.50
2023-04-17T04:28:36.229Z,8.45
2023-04-17T04:31:04.694Z,9.75
2023-04-17T04:33:31.784Z,15.65
2023-04-17T04:36:01.489Z,23.40
2023-04-17T04:38:33.038Z,12.98
2023-04-17T04:41:06.635Z,8.15
2023-04-17T04:43:34.312Z,6.13
2023-04-17T04:46:01.654Z,6.47
2023-04-17T04:48:31.689Z,5.40
2023-04-17T04:50:58.952Z,5.03
2023-04-17T04:53:26.132Z,5.05
2023-04-17T04:55:53.368Z,4.88
2023-04-17T04:58:20.630Z,5.28
2023-04-17T05:00:47.840Z,5.72
2023-04-17T05:03:15.376Z,6.45
2023-04-17T05:05:43.591Z,5.22
2023-04-17T05:08:10.762Z,4.75
2023-04-17T05:10:37.889Z,4.45
2023-04-17T05:13:05.046Z,4.45
2023-04-17T05:15:32.091Z,4.50
2023-04-17T05:17:59.351Z,4.40
2023-04-17T05:20:26.531Z,4.45
2023-04-17T05:22:53.650Z,4.05
2023-04-17T05:25:21.052Z,4.40
2023-04-17T05:27:48.332Z,4.05
2023-04-17T05:30:16.188Z,4.10
2023-04-17T05:32:43.535Z,4.30
2023-04-17T05:35:11.016Z,4.25
2023-04-17T05:37:38.199Z,4.10
2023-04-17T05:40:07.352Z,5.40
2023-04-17T05:42:34.917Z,5.00
2023-04-17T05:45:02.155Z,5.15
2023-04-17T05:47:29.344Z,6.20
2023-04-17T05:49:58.752Z,6.97
2023-04-17T05:52:26.229Z,6.43
2023-04-17T05:54:53.429Z,4.05
2023-04-17T05:57:20.516Z,4.50
2023-04-17T05:59:47.674Z,5.78
2023-04-17T06:02:16.099Z,6.10
2023-04-17T06:04:44.438Z,5.60
2023-04-17T06:07:12.090Z,6.00
2023-04-17T06:09:40.609Z,6.03
2023-04-17T06:12:15.035Z,5.43
2023-04-17T06:14:43.207Z,4.60
2023-04-17T06:17:11.108Z,5.20
2023-04-17T06:19:38.689Z,4.75
2023-04-17T06:22:06.427Z,4.07
2023-04-17T06:24:33.771Z,4.32
2023-04-17T06:27:01.019Z,4.28
2023-04-17T06:29:28.104Z,4.15
2023-04-17T06:31:55.188Z,3.80
2023-04-17T06:34:22.478Z,5.40
2023-04-17T06:36:49.610Z,4.80
2023-04-17T06:39:16.832Z,4.35
2023-04-17T06:41:44.202Z,5.20
2023-04-17T06:44:11.438Z,5.55
2023-04-17T06:46:38.740Z,9.32
2023-04-17T06:49:05.997Z,4.70
2023-04-17T06:51:33.505Z,5.25
2023-04-17T06:54:00.695Z,13.52
2023-04-17T06:56:28.101Z,31.50
2023-04-17T06:58:55.366Z,5.22
2023-04-17T07:01:22.529Z,11.13
2023-04-17T07:03:49.875Z,11.60
2023-04-17T07:06:17.350Z,9.50
2023-04-17T07:08:44.583Z,14.05
2023-04-17T07:11:11.937Z,5.43
2023-04-17T07:13:39.180Z,4.88
2023-04-17T07:16:06.994Z,4.00
2023-04-17T07:18:34.286Z,4.15
2023-04-17T07:21:02.173Z,5.32
2023-04-17T07:23:29.406Z,4.80
2023-04-17T07:25:56.562Z,7.88
2023-04-17T07:28:24.878Z,4.00
2023-04-17T07:30:55.233Z,6.03
2023-04-17T07:33:22.675Z,5.00
2023-04-17T07:35:49.982Z,4.30
2023-04-17T07:38:17.429Z,4.30
2023-04-17T07:40:44.723Z,3.50
2023-04-17T07:43:12.105Z,10.75
2023-04-17T07:45:41.654Z,6.32
2023-04-17T07:48:10.043Z,3.92
2023-04-17T07:50:37.547Z,4.18
2023-04-17T07:53:04.983Z,3.83
2023-04-17T07:55:32.228Z,4.03
2023-04-17T07:58:02.137Z,3.92
2023-04-17T08:00:30.729Z,4.50
2023-04-17T08:02:58.602Z,3.92
2023-04-17T08:05:26.484Z,3.90
2023-04-17T08:07:53.671Z,5.00
2023-04-17T08:10:20.983Z,4.93
2023-04-17T08:12:48.387Z,6.13
2023-04-17T08:15:15.675Z,6.63
2023-04-17T08:17:43.553Z,9.48
2023-04-17T08:20:13.858Z,7.60
2023-04-17T08:22:42.976Z,8.93
2023-04-17T08:25:11.283Z,6.43
2023-04-17T08:27:40.704Z,7.43
2023-04-17T08:30:12.584Z,7.20
2023-04-17T08:32:45.718Z,5.18
2023-04-17T08:35:14.494Z,4.53
2023-04-17T08:37:42.831Z,4.57
2023-04-17T08:40:11.381Z,5.55
2023-04-17T08:42:40.669Z,5.82
2023-04-17T08:45:12.789Z,5.63
2023-04-17T08:47:43.885Z,6.05
2023-04-17T08:50:19.540Z,11.43
2023-04-17T08:52:51.303Z,5.78
2023-04-17T08:55:20.971Z,5.63
2023-04-17T08:57:58.933Z,8.93
2023-04-17T09:00:27.571Z,9.45
2023-04-17T09:02:56.654Z,8.80
2023-04-17T09:05:25.036Z,9.05
2023-04-17T09:08:06.929Z,8.82
2023-04-17T09:10:41.130Z,7.55
2023-04-17T09:13:09.327Z,8.20
2023-04-17T09:15:37.330Z,8.25
2023-04-17T09:18:05.813Z,7.60
2023-04-17T09:20:33.045Z,8.25
2023-04-17T09:23:04.425Z,11.57
2023-04-17T09:25:32.103Z,10.38
2023-04-17T09:28:14.198Z,7.85
2023-04-17T09:30:42.276Z,8.48
2023-04-17T09:33:10.909Z,7.35
2023-04-17T09:35:40.119Z,6.70
2023-04-17T09:38:07.875Z,6.68
2023-04-17T09:40:41.178Z,7.63
2023-04-17T09:43:11.572Z,7.05
2023-04-17T09:45:42.845Z,6.53
2023-04-17T09:48:11.805Z,8.75
2023-04-17T09:50:39.881Z,7.68
2023-04-17T09:53:08.412Z,10.18
2023-04-17T09:55:38.329Z,9.18
2023-04-17T09:58:07.701Z,7.63
2023-04-17T10:00:36.753Z,6.97
2023-04-17T10:03:05.076Z,7.05
2023-04-17T10:05:33.198Z,5.80
2023-04-17T10:08:00.809Z,5.50
2023-04-17T10:10:31.546Z,5.88
2023-04-17T10:13:06.134Z,6.43
2023-04-17T10:18:24.223Z,7.68
2023-04-17T10:20:53.801Z,7.00
2023-04-17T10:23:30.068Z,7.65
2023-04-17T10:26:25.338Z,6.43
2023-04-17T10:28:53.692Z,7.15
2023-04-17T10:31:23.469Z,6.88
2023-04-17T10:33:54.674Z,6.28
2023-04-17T10:36:39.834Z,6.13
2023-04-17T10:39:14.596Z,6.18
2023-04-17T10:42:04.903Z,7.25
2023-04-17T10:44:41.732Z,5.93
2023-04-17T10:47:15.958Z,6.82
2023-04-17T10:52:43.840Z,4.90
2023-04-17T10:55:21.546Z,5.28
2023-04-17T10:58:05.087Z,4.80
2023-04-17T11:00:38.745Z,5.78
2023-04-17T11:03:07.490Z,4.82
2023-04-17T11:05:36.115Z,4.80
2023-04-17T11:08:03.535Z,5.70
2023-04-17T11:10:31.133Z,5.47
2023-04-17T11:12:58.314Z,6.30
2023-04-17T11:15:34.269Z,5.78
2023-04-17T11:18:03.533Z,4.93
2023-04-17T11:20:32.930Z,5.30
2023-04-17T11:23:04.861Z,6.47
2023-04-17T11:25:34.350Z,5.72
2023-04-17T11:28:05.489Z,5.68
2023-04-17T11:30:40.819Z,5.57
2023-04-17T11:33:08.908Z,5.55
2023-04-17T11:35:37.758Z,5.40
2023-04-17T11:38:18.035Z,5.90
2023-04-17T11:40:53.480Z,5.65
2023-04-17T11:43:22.473Z,5.75
2023-04-17T11:45:56.651Z,5.63
2023-04-17T11:48:29.098Z,5.43
2023-04-17T11:51:03.617Z,5.40
2023-04-17T11:56:18.496Z,5.50
2023-04-17T11:58:53.983Z,4.65
2023-04-17T12:01:26.570Z,4.57
2023-04-17T12:03:55.423Z,4.60
2023-04-17T12:06:23.214Z,5.03
2023-04-17T12:08:53.671Z,5.40
2023-04-17T12:11:26.960Z,4.35
2023-04-17T12:13:55.579Z,5.07
2023-04-17T12:16:27.317Z,4.90
2023-04-17T12:18:55.741Z,4.25
2023-04-17T12:21:24.217Z,5.25
2023-04-17T12:23:51.882Z,4.72
2023-04-17T12:26:19.325Z,4.65
2023-04-17T12:28:46.545Z,4.40
2023-04-17T12:31:14.443Z,4.68
2023-04-17T12:33:41.747Z,5.13
2023-04-17T12:36:09.853Z,4.43
2023-04-17T12:38:37.151Z,4.65
2023-04-17T12:41:04.291Z,4.70
2023-04-17T12:43:34.126Z,4.57
2023-04-17T12:46:01.886Z,5.05
2023-04-17T12:48:31.337Z,7.00
2023-04-17T12:50:59.897Z,5.90
2023-04-17T12:53:27.335Z,5.32
2023-04-17T12:55:54.604Z,6.03
2023-04-17T12:58:21.996Z,5.00
2023-04-17T13:00:49.211Z,18.58
2023-04-17T13:03:16.646Z,17.40
2023-04-17T13:05:44.641Z,5.60
2023-04-17T13:08:15.294Z,16.02
2023-04-17T13:10:43.845Z,5.18
2023-04-17T13:13:11.467Z,6.07
2023-04-17T13:15:40.689Z,5.25
2023-04-17T13:18:08.426Z,5.28
2023-04-17T13:20:35.566Z,5.80
2023-04-17T13:23:02.758Z,6.45
2023-04-17T13:25:31.001Z,5.75
2023-04-17T13:27:59.069Z,5.22
2023-04-17T13:30:26.564Z,5.57
2023-04-17T13:32:53.800Z,4.75
2023-04-17T13:35:20.996Z,5.45
2023-04-17T13:37:48.088Z,5.60
2023-04-17T13:40:17.289Z,6.30
2023-04-17T13:42:44.706Z,5.35
2023-04-17T13:45:12.769Z,6.10
2023-04-17T13:47:40.151Z,8.95
2023-04-17T13:50:07.994Z,6.68
2023-04-17T13:52:35.161Z,7.47
2023-04-17T13:55:02.361Z,7.75
2023-04-17T13:57:29.638Z,7.85
2023-04-17T13:59:56.988Z,6.88
2023-04-17T14:02:24.399Z,5.93
2023-04-17T14:04:51.834Z,6.00
2023-04-17T14:07:19.111Z,5.60
2023-04-17T14:09:46.366Z,7.10
2023-04-17T14:12:19.908Z,6.38
2023-04-17T14:14:47.318Z,5.80
2023-04-17T14:17:14.483Z,5.90
2023-04-17T14:19:41.622Z,7.70
2023-04-17T14:22:08.810Z,5.28
2023-04-17T14:24:35.889Z,9.30
2023-04-17T14:27:02.917Z,12.35
2023-04-17T14:29:30.047Z,6.88
2023-04-17T14:31:57.264Z,6.30
2023-04-17T14:34:24.464Z,5.78
2023-04-17T14:36:51.688Z,5.53
2023-04-17T14:39:19.960Z,5.20
2023-04-17T14:41:47.176Z,7.30
2023-04-17T14:44:14.689Z,6.50
2023-04-17T14:46:42.162Z,6.95
2023-04-17T14:49:09.739Z,5.85
2023-04-17T14:51:36.876Z,5.35
2023-04-17T14:54:04.172Z,6.50
2023-04-17T14:56:31.273Z,5.20
2023-04-17T14:58:58.465Z,5.20
2023-04-17T15:01:25.854Z,5.72
2023-04-17T15:03:53.461Z,5.57
2023-04-17T15:06:20.788Z,5.38
2023-04-17T15:08:48.645Z,5.15
2023-04-17T15:11:16.350Z,5.38
2023-04-17T15:13:43.487Z,5.00
2023-04-17T15:16:13.727Z,5.00
2023-04-17T15:18:41.114Z,5.20
2023-04-17T15:21:08.498Z,5.60
2023-04-17T15:23:35.710Z,5.53
2023-04-17T15:26:02.959Z,4.60
2023-04-17T15:28:30.044Z,5.68
2023-04-17T15:30:57.199Z,5.35
2023-04-17T15:33:24.278Z,5.47
2023-04-17T15:35:59.320Z,5.15
2023-04-17T15:38:27.198Z,5.30
2023-04-17T15:40:54.672Z,4.80
2023-04-17T15:43:22.245Z,5.22
2023-04-17T15:45:49.813Z,5.25
2023-04-17T15:48:17.055Z,5.40
2023-04-17T15:50:44.481Z,5.18
2023-04-17T15:53:13.161Z,5.10
2023-04-17T15:55:41.594Z,4.90
2023-04-17T15:58:08.873Z,5.10
2023-04-17T16:00:36.408Z,4.70
2023-04-17T16:03:03.812Z,5.55
2023-04-17T16:05:31.351Z,5.47
2023-04-17T16:07:58.447Z,4.97
2023-04-17T16:10:25.752Z,6.25
2023-04-17T16:12:52.919Z,5.45
2023-04-17T16:15:20.172Z,5.10
2023-04-17T16:17:49.053Z,5.32
2023-04-17T16:20:16.403Z,5.25
2023-04-17T16:22:43.825Z,5.50
2023-04-17T16:25:13.665Z,5.03
2023-04-17T16:27:41.526Z,5.15
2023-04-17T16:30:10.117Z,5.35
2023-04-17T16:32:37.354Z,5.40
2023-04-17T16:35:04.973Z,6.68
2023-04-17T16:37:32.084Z,4.72
2023-04-17T16:40:04.956Z,5.60
2023-04-17T16:42:32.893Z,7.15
2023-04-17T16:45:00.482Z,6.70
2023-04-17T16:47:30.746Z,6.03
2023-04-17T16:49:58.218Z,6.47
2023-04-17T16:52:25.443Z,6.00
2023-04-17T16:54:52.697Z,6.40
2023-04-17T16:57:19.832Z,6.50
2023-04-17T16:59:47.053Z,6.20
2023-04-17T17:02:14.566Z,7.15
2023-04-17T17:04:41.869Z,5.65
2023-04-17T17:07:09.460Z,8.95
2023-04-17T17:09:36.989Z,5.70
2023-04-17T17:12:04.417Z,4.80
2023-04-17T17:14:31.690Z,5.85
2023-04-17T17:16:59.868Z,6.72
2023-04-17T17:19:27.186Z,7.80
2023-04-17T17:21:55.869Z,8.10
2023-04-17T17:24:23.020Z,7.35
2023-04-17T17:26:50.197Z,7.70
2023-04-17T17:29:17.667Z,8.50
2023-04-17T17:31:45.184Z,7.82
2023-04-17T17:34:25.435Z,7.43
2023-04-17T17:36:53.668Z,7.28
2023-04-17T17:39:22.558Z,7.22
2023-04-17T17:41:49.889Z,7.10
2023-04-17T17:44:17.788Z,7.40
2023-04-17T17:46:45.147Z,8.02
2023-04-17T17:49:12.878Z,8.52
2023-04-17T17:51:40.620Z,8.50
2023-04-17T17:54:08.302Z,8.57
2023-04-17T17:56:35.776Z,8.18
2023-04-17T17:59:03.404Z,8.40
2023-04-17T18:01:31.724Z,6.53
2023-04-17T18:04:01.829Z,4.75
2023-04-17T18:06:29.338Z,4.20
2023-04-17T18:08:58.291Z,4.10
2023-04-17T18:11:25.900Z,4.18
2023-04-17T18:13:53.414Z,5.40
2023-04-17T18:16:21.311Z,3.38
2023-04-17T18:18:48.898Z,4.45
2023-04-17T18:21:16.307Z,6.40
2023-04-17T18:23:43.724Z,4.97
2023-04-17T18:26:13.888Z,5.05
2023-04-17T18:28:41.722Z,5.63
2023-04-17T18:31:09.423Z,7.70
2023-04-17T18:33:37.794Z,7.97
2023-04-17T18:36:07.383Z,8.05
2023-04-17T18:38:35.755Z,8.85
2023-04-17T18:41:04.678Z,9.13
2023-04-17T18:43:33.693Z,7.60
2023-04-17T18:46:05.757Z,10.80
2023-04-17T18:48:34.109Z,6.28
2023-04-17T18:51:12.245Z,6.40
2023-04-17T18:53:41.424Z,7.00
2023-04-17T18:56:11.460Z,7.03
2023-04-17T18:58:40.740Z,6.95
2023-04-17T19:01:10.871Z,7.53
2023-04-17T19:03:40.165Z,7.05
2023-04-17T19:06:07.736Z,7.45
2023-04-17T19:08:38.850Z,7.05
2023-04-17T19:11:08.649Z,7.10
2023-04-17T19:13:36.555Z,7.38
2023-04-17T19:16:04.391Z,7.43
2023-04-17T19:18:32.478Z,8.48
2023-04-17T19:21:00.209Z,9.38
2023-04-17T19:23:27.992Z,7.88
2023-04-17T19:25:55.734Z,8.70
2023-04-17T19:28:24.348Z,10.65
2023-04-17T19:30:52.400Z,8.77
2023-04-17T19:33:21.112Z,9.30
2023-04-17T19:35:49.219Z,9.68
2023-04-17T19:38:17.497Z,9.90
2023-04-17T19:41:08.412Z,7.28
2023-04-17T19:43:36.825Z,7.15
2023-04-17T19:46:04.325Z,7.32
2023-04-17T19:48:32.651Z,7.78
2023-04-17T19:51:00.927Z,7.72
2023-04-17T19:53:32.763Z,9.07
2023-04-17T19:56:00.419Z,8.60
2023-04-17T19:58:28.317Z,9.45
2023-04-17T20:00:55.736Z,7.65
2023-04-17T20:03:27.325Z,8.13
2023-04-17T20:05:56.303Z,7.25
2023-04-17T20:08:25.906Z,6.78
2023-04-17T20:10:54.098Z,6.30
2023-04-17T20:13:22.203Z,7.20
2023-04-17T20:15:50.173Z,7.50
2023-04-17T20:18:18.992Z,8.95
2023-04-17T20:20:47.938Z,7.57
2023-04-17T20:23:15.217Z,7.97
2023-04-17T20:25:42.393Z,7.43
2023-04-17T20:28:10.060Z,8.32
2023-04-17T20:30:38.724Z,8.45
2023-04-17T20:33:06.033Z,6.82
2023-04-17T20:35:33.473Z,7.53
2023-04-17T20:38:00.838Z,8.52
2023-04-17T20:40:28.394Z,7.72
2023-04-17T20:42:55.903Z,8.05
2023-04-17T20:45:23.196Z,7.80
2023-04-17T20:47:56.025Z,7.10
2023-04-17T20:50:24.680Z,8.15
2023-04-17T20:52:52.059Z,8.90
2023-04-17T20:55:20.232Z,8.00
2023-04-17T20:57:48.120Z,9.20
2023-04-17T21:00:16.263Z,9.30
2023-04-17T21:02:43.931Z,7.55
2023-04-17T21:05:11.284Z,7.07
2023-04-17T21:07:38.430Z,7.15
2023-04-17T21:10:06.136Z,7.97
2023-04-17T21:12:35.514Z,8.32
2023-04-17T21:15:02.890Z,7.57
2023-04-17T21:17:30.181Z,8.10
2023-04-17T21:19:57.326Z,7.22
2023-04-17T21:22:24.417Z,7.88
2023-04-17T21:24:51.598Z,7.82
2023-04-17T21:27:18.817Z,7.65
2023-04-17T21:29:46.026Z,7.38
2023-04-17T21:32:13.228Z,8.00
2023-04-17T21:34:40.404Z,7.13
2023-04-17T21:37:07.527Z,7.68
2023-04-17T21:39:34.674Z,8.50
2023-04-17T21:42:02.256Z,8.25
2023-04-17T21:44:29.416Z,7.95
2023-04-17T21:46:56.563Z,8.73
2023-04-17T21:49:23.804Z,8.10
2023-04-17T21:51:51.236Z,8.45
2023-04-17T21:54:18.330Z,8.65
2023-04-17T21:56:45.563Z,8.30
2023-04-17T21:59:12.668Z,8.93
2023-04-17T22:01:39.888Z,8.73
2023-04-17T22:04:07.065Z,9.32
2023-04-17T22:06:37.644Z,8.52
2023-04-17T22:09:08.984Z,7.90
2023-04-17T22:11:39.900Z,8.32
2023-04-17T22:14:07.047Z,8.88
2023-04-17T22:16:34.219Z,9.85
2023-04-17T22:19:02.085Z,12.73
2023-04-17T22:21:29.414Z,10.57
2023-04-17T22:23:56.548Z,10.80
2023-04-17T22:26:23.606Z,9.75
2023-04-17T22:28:50.756Z,9.20
2023-04-17T22:31:17.950Z,11.23
2023-04-17T22:33:45.184Z,10.32
2023-04-17T22:36:12.307Z,9.38
2023-04-17T22:38:39.408Z,9.15
2023-04-17T22:41:07.033Z,10.15
2023-04-17T22:43:34.095Z,9.55
2023-04-17T22:46:01.242Z,9.98
2023-04-17T22:48:28.554Z,10.07
2023-04-17T22:50:56.620Z,9.63
2023-04-17T22:53:23.767Z,9.70
2023-04-17T22:56:13.270Z,8.55
2023-04-17T22:58:40.532Z,9.10
2023-04-17T23:01:07.703Z,9.07
2023-04-17T23:03:35.328Z,8.60
2023-04-17T23:06:03.349Z,8.57
2023-04-17T23:08:31.233Z,8.45
2023-04-17T23:11:00.060Z,8.50
2023-04-17T23:13:28.244Z,8.40
2023-04-17T23:15:55.637Z,8.75
2023-04-17T23:18:22.885Z,8.90
2023-04-17T23:20:50.186Z,9.23
2023-04-17T23:23:18.723Z,9.00
2023-04-17T23:25:46.478Z,9.00
2023-04-17T23:28:14.054Z,8.68
2023-04-17T23:30:41.540Z,9.27
2023-04-17T23:33:09.846Z,9.50
2023-04-17T23:35:36.991Z,9.45
2023-04-17T23:38:04.240Z,8.85
2023-04-17T23:40:32.996Z,9.65
2023-04-17T23:43:00.786Z,8.50
2023-04-17T23:45:28.000Z,7.95
2023-04-17T23:47:55.219Z,7.53
2023-04-17T23:50:22.387Z,7.78
2023-04-17T23:52:49.713Z,7.40
2023-04-17T23:55:16.870Z,7.55
2023-04-17T23:57:44.008Z,7.50
